Airport View

Enter AWOS ICAO identifier for current METAR.

ex. KFNL

KHZD 192015Z AUTO VRB05KT 10SM BKN047 OVC055 35/23 A3000 RMK A01

19 Aug 2019 20:24

Frequency: 133.275

Phone: 731-352-2854

Other Area AWOS: KPHT - KPVE - KUCY - KCEY

TAF KMKL 191735Z 1918/2018 12004KT P6SM SCT040 FM192000 15005KT P6SM VCSH SCT040 BKN250 FM200000 VRB03KT P6SM FEW250 TEMPO 2010/2013 4SM BR FM201400 21004KT P6SM SCT035